Time;durP1;ratioP1;P1;durP2;ratioP2;P2;SDS_P1;SDS_P2;PMS_P1;PMS_P2;Temp;Humidity;BMP_temperature;BMP_pressure;BME280_temperature;BME280_humidity;BME280_pressure;Samples;Min_cycle;Max_cycle;Signal;HPM_P1;HPM_P2
2022/07/07 00:01:57;;;;;;;11.43;7.55;;;29.00;99.90;;;;;;4163631;28;20135;-63
2022/07/07 00:04:02;;;;;;;13.98;7.63;;;29.00;99.90;;;;;;4172314;28;20045;-63
2022/07/07 00:06:10;;;;;;;13.93;8.25;;;29.00;99.90;;;;;;4169341;28;20124;-63
2022/07/07 00:08:16;;;;;;;12.73;7.90;;;29.00;99.90;;;;;;4170530;28;20080;-63
2022/07/07 00:10:20;;;;;;;15.43;8.27;;;29.10;99.90;;;;;;4176967;28;20055;-63
2022/07/07 00:12:29;;;;;;;12.88;7.38;;;29.10;99.90;;;;;;4171918;28;20557;-67
2022/07/07 00:14:35;;;;;;;13.43;7.65;;;29.10;99.90;;;;;;4176411;28;20573;-64
2022/07/07 00:16:40;;;;;;;13.40;7.35;;;29.20;99.90;;;;;;4180699;28;20428;-64
2022/07/07 00:18:47;;;;;;;12.85;7.60;;;29.20;99.90;;;;;;4173677;28;20048;-63
2022/07/07 00:20:51;;;;;;;16.95;8.35;;;29.30;99.90;;;;;;4171372;28;20049;-63
2022/07/07 00:22:57;;;;;;;12.90;7.63;;;29.20;99.90;;;;;;4174883;28;20041;-63
2022/07/07 00:25:06;;;;;;;13.70;7.00;;;29.20;99.90;;;;;;4180090;28;20459;-63
2022/07/07 00:27:11;;;;;;;9.27;6.35;;;29.30;99.90;;;;;;4180647;28;20040;-65
2022/07/07 00:29:16;;;;;;;10.85;6.65;;;29.40;99.90;;;;;;4182249;28;20143;-64
2022/07/07 00:31:24;;;;;;;9.25;5.60;;;29.40;99.90;;;;;;4183038;28;20045;-64
2022/07/07 00:33:30;;;;;;;9.75;5.47;;;29.40;99.90;;;;;;4180539;28;20438;-64
2022/07/07 00:35:36;;;;;;;10.88;4.95;;;29.50;99.90;;;;;;4180739;28;20049;-64
2022/07/07 00:37:47;;;;;;;11.48;5.28;;;29.50;99.90;;;;;;4159107;28;20049;-65
2022/07/07 00:39:52;;;;;;;11.80;5.85;;;29.50;99.90;;;;;;4178690;28;20040;-63
2022/07/07 00:41:58;;;;;;;11.02;5.03;;;29.60;99.90;;;;;;4174572;28;20057;-63
2022/07/07 00:44:06;;;;;;;11.90;5.60;;;29.60;99.90;;;;;;4186779;28;20091;-63
2022/07/07 00:46:11;;;;;;;7.03;4.20;;;29.60;99.90;;;;;;4181904;28;20068;-65
2022/07/07 00:48:20;;;;;;;8.68;4.30;;;29.60;99.90;;;;;;4174926;28;20063;-62
2022/07/07 00:50:28;;;;;;;8.55;4.45;;;29.60;99.90;;;;;;4182590;28;20143;-62
2022/07/07 00:52:33;;;;;;;11.48;4.78;;;29.60;99.90;;;;;;4184831;28;20053;-62
2022/07/07 00:54:38;;;;;;;10.13;4.75;;;29.60;99.90;;;;;;4189912;28;20052;-63
2022/07/07 00:56:46;;;;;;;9.68;4.70;;;29.60;99.90;;;;;;4188976;28;20107;-63
2022/07/07 00:59:13;;;;;;;13.68;4.75;;;29.70;99.90;;;;;;4176736;28;20140;-63
2022/07/07 01:01:17;;;;;;;12.50;5.00;;;29.70;99.90;;;;;;4180001;28;20080;-64
2022/07/07 01:03:27;;;;;;;11.90;4.80;;;29.70;99.90;;;;;;4184913;28;20423;-64
2022/07/07 01:05:32;;;;;;;8.38;4.53;;;29.80;99.90;;;;;;4183352;28;20052;-64
2022/07/07 01:07:37;;;;;;;8.60;4.88;;;29.80;99.90;;;;;;4186270;28;20040;-64
2022/07/07 01:09:46;;;;;;;11.48;4.35;;;29.80;99.90;;;;;;4175795;28;20139;-63
2022/07/07 01:11:54;;;;;;;16.38;4.78;;;29.80;99.90;;;;;;4184429;28;20318;-63
2022/07/07 01:13:59;;;;;;;11.35;4.60;;;29.80;99.90;;;;;;4181568;28;20519;-63
2022/07/07 01:16:11;;;;;;;11.27;4.82;;;29.80;99.90;;;;;;4186785;28;20105;-63
2022/07/07 01:18:15;;;;;;;7.05;3.80;;;29.90;99.90;;;;;;4186968;28;20598;-64
2022/07/07 01:20:20;;;;;;;9.40;4.32;;;29.90;99.90;;;;;;4186837;28;20096;-63
2022/07/07 01:22:29;;;;;;;8.85;4.40;;;29.90;99.90;;;;;;3282883;28;10000849;-64
2022/07/07 01:24:34;;;;;;;10.25;4.65;;;29.90;99.90;;;;;;4169953;28;20053;-64
2022/07/07 01:26:39;;;;;;;9.23;4.60;;;30.00;99.90;;;;;;3846915;28;10001553;-66
2022/07/07 01:28:48;;;;;;;9.68;4.05;;;30.00;99.90;;;;;;3629976;28;10001287;-64
2022/07/07 01:30:53;;;;;;;8.25;4.00;;;30.10;99.90;;;;;;4171729;28;20136;-64
2022/07/07 01:32:59;;;;;;;7.68;3.97;;;30.20;99.90;;;;;;4160121;28;20049;-64
2022/07/07 01:35:08;;;;;;;9.45;4.75;;;30.20;99.90;;;;;;4161182;28;20041;-63
2022/07/07 01:37:13;;;;;;;9.02;5.78;;;30.20;99.90;;;;;;4185706;28;20139;-64
2022/07/07 01:39:20;;;;;;;12.75;7.75;;;30.20;99.90;;;;;;4181444;28;20056;-64
2022/07/07 01:41:29;;;;;;;13.73;7.07;;;30.20;99.90;;;;;;4161073;28;20056;-64
2022/07/07 01:43:33;;;;;;;27.52;15.23;;;30.30;99.90;;;;;;4170229;28;20045;-64
2022/07/07 01:45:42;;;;;;;53.70;31.98;;;30.30;99.90;;;;;;4172424;28;20051;-64
2022/07/07 01:47:50;;;;;;;82.72;51.47;;;30.40;99.90;;;;;;4172521;28;20574;-64
2022/07/07 01:49:55;;;;;;;44.33;28.23;;;30.40;99.90;;;;;;4179900;28;20048;-64
2022/07/07 01:52:00;;;;;;;43.55;27.50;;;30.40;99.90;;;;;;4187961;28;20072;-64
2022/07/07 01:54:06;;;;;;;55.72;32.13;;;30.50;99.90;;;;;;4185478;28;20112;-64
2022/07/07 01:56:10;;;;;;;51.30;32.28;;;30.50;99.90;;;;;;4176611;28;20041;-64
2022/07/07 01:58:15;;;;;;;40.20;25.90;;;30.60;99.90;;;;;;4182800;28;20387;-63
2022/07/07 02:00:24;;;;;;;17.88;11.35;;;30.60;99.90;;;;;;4180802;28;20423;-64
2022/07/07 02:02:28;;;;;;;15.75;10.00;;;30.70;99.80;;;;;;4184578;28;20383;-64
2022/07/07 02:04:33;;;;;;;23.63;13.02;;;30.70;99.60;;;;;;4178417;28;20424;-64
2022/07/07 02:06:40;;;;;;;19.80;12.00;;;30.70;99.60;;;;;;4171371;28;20052;-65
2022/07/07 02:08:45;;;;;;;15.63;9.07;;;30.80;99.60;;;;;;4169894;28;20055;-63
2022/07/07 02:13:11;;;;;;;18.67;11.13;;;30.90;99.40;;;;;;4169712;28;20465;-64
2022/07/07 02:15:16;;;;;;;18.95;9.63;;;31.00;99.40;;;;;;4179755;28;20049;-64
2022/07/07 02:17:21;;;;;;;16.92;10.02;;;31.00;99.20;;;;;;4176834;28;20078;-63
2022/07/07 02:19:30;;;;;;;17.90;11.15;;;31.00;98.90;;;;;;4181309;28;20440;-64
2022/07/07 02:21:34;;;;;;;17.02;11.63;;;31.10;99.00;;;;;;4182926;28;20452;-64
2022/07/07 02:23:41;;;;;;;14.70;8.20;;;31.10;98.80;;;;;;4188553;28;20094;-64
2022/07/07 02:25:50;;;;;;;16.48;7.72;;;31.20;98.70;;;;;;4175238;28;20136;-64
2022/07/07 02:27:54;;;;;;;15.55;6.80;;;31.20;98.70;;;;;;4185089;28;20055;-64
2022/07/07 02:29:59;;;;;;;15.35;6.72;;;31.20;98.70;;;;;;4193428;28;20052;-64
2022/07/07 02:32:05;;;;;;;20.05;15.70;;;31.20;98.60;;;;;;4193894;28;20467;-64
2022/07/07 02:34:09;;;;;;;80.07;63.15;;;31.30;98.50;;;;;;4192459;28;20051;-65
2022/07/07 02:36:14;;;;;;;84.07;63.45;;;31.30;98.50;;;;;;4193455;28;20061;-64
2022/07/07 02:38:19;;;;;;;39.67;29.15;;;31.40;98.20;;;;;;4192310;28;20051;-64
2022/07/07 02:40:25;;;;;;;18.67;13.20;;;31.40;98.10;;;;;;4192358;28;20083;-64
2022/07/07 02:42:29;;;;;;;18.15;13.43;;;31.30;97.80;;;;;;4191343;28;20051;-64
2022/07/07 02:44:34;;;;;;;15.57;10.30;;;31.30;97.70;;;;;;4164377;28;20053;-64
2022/07/07 02:46:38;;;;;;;68.97;46.03;;;31.30;97.80;;;;;;4164241;28;20041;-64
2022/07/07 02:48:43;;;;;;;275.02;206.57;;;31.40;97.70;;;;;;4176007;28;20083;-64
2022/07/07 02:50:52;;;;;;;185.98;139.80;;;31.50;97.50;;;;;;4175081;28;20049;-64
2022/07/07 02:52:57;;;;;;;193.35;146.52;;;31.50;97.90;;;;;;4169441;28;20044;-64
2022/07/07 02:55:01;;;;;;;131.20;108.03;;;31.60;97.70;;;;;;4175445;28;20045;-65
2022/07/07 02:57:16;;;;;;;56.97;44.38;;;31.60;97.70;;;;;;4179445;28;20045;-64
2022/07/07 02:59:25;;;;;;;58.67;44.97;;;31.70;97.60;;;;;;4174131;28;20041;-65
2022/07/07 03:01:30;;;;;;;40.50;30.88;;;31.70;97.70;;;;;;4174955;28;20064;-65
2022/07/07 03:03:37;;;;;;;16.65;12.38;;;31.80;97.60;;;;;;4184358;28;20044;-64
2022/07/07 03:05:42;;;;;;;15.25;10.07;;;31.80;97.30;;;;;;4186810;28;20044;-65
2022/07/07 03:07:46;;;;;;;24.30;15.57;;;31.90;97.40;;;;;;4161472;28;20543;-65
2022/07/07 03:09:55;;;;;;;16.60;9.90;;;32.00;97.30;;;;;;4192847;28;20569;-64
2022/07/07 03:12:00;;;;;;;14.68;10.60;;;32.00;97.10;;;;;;4174348;28;20593;-64
2022/07/07 03:14:07;;;;;;;10.63;5.80;;;32.10;96.90;;;;;;4167689;28;20048;-63
2022/07/07 03:16:13;;;;;;;10.20;5.30;;;32.00;96.30;;;;;;4158037;28;20449;-64
2022/07/07 03:18:18;;;;;;;8.38;5.07;;;32.10;96.40;;;;;;4139755;28;20048;-65
2022/07/07 03:20:23;;;;;;;8.90;4.85;;;32.10;96.30;;;;;;4157672;28;20064;-65
2022/07/07 03:22:30;;;;;;;6.85;3.92;;;32.10;96.40;;;;;;4158058;28;20042;-65
2022/07/07 03:24:35;;;;;;;16.85;8.43;;;32.20;96.40;;;;;;4168863;28;20566;-65
2022/07/07 03:26:40;;;;;;;14.80;9.18;;;32.40;96.30;;;;;;4174318;28;20145;-65
2022/07/07 03:28:49;;;;;;;13.15;7.45;;;32.40;96.40;;;;;;4116061;28;20050;-64
2022/07/07 03:30:54;;;;;;;12.88;7.90;;;32.50;96.40;;;;;;4173083;28;20053;-65
2022/07/07 03:32:59;;;;;;;12.02;6.07;;;32.60;96.10;;;;;;4157883;28;20057;-65
2022/07/07 03:35:08;;;;;;;8.23;4.22;;;32.70;95.90;;;;;;4156088;28;20046;-64
2022/07/07 03:37:12;;;;;;;10.55;5.10;;;32.60;95.80;;;;;;4157624;28;20423;-65
2022/07/07 03:39:17;;;;;;;6.78;4.00;;;32.60;95.40;;;;;;4158454;28;20049;-65
2022/07/07 03:41:26;;;;;;;9.43;4.85;;;32.60;95.60;;;;;;4174560;28;20048;-64
2022/07/07 03:43:32;;;;;;;11.70;5.30;;;32.70;95.50;;;;;;4186058;28;20044;-65
2022/07/07 03:45:43;;;;;;;11.38;5.75;;;32.80;95.80;;;;;;4177570;28;20099;-65
2022/07/07 03:47:53;;;;;;;14.50;6.60;;;32.90;95.80;;;;;;4177283;28;20140;-65
2022/07/07 03:49:57;;;;;;;9.55;5.68;;;33.00;95.70;;;;;;4184854;28;20061;-65
2022/07/07 03:52:03;;;;;;;15.07;6.93;;;33.10;95.60;;;;;;4176725;28;20052;-63
2022/07/07 03:54:12;;;;;;;9.00;5.50;;;33.10;95.60;;;;;;4179609;28;20048;-64
2022/07/07 03:56:18;;;;;;;11.57;5.63;;;33.00;95.10;;;;;;4190949;28;20491;-64
2022/07/07 03:58:23;;;;;;;14.63;6.82;;;32.90;95.60;;;;;;4181353;28;20075;-64
2022/07/07 04:00:32;;;;;;;12.38;6.78;;;32.90;95.70;;;;;;4181819;28;20044;-64
2022/07/07 04:02:37;;;;;;;9.68;5.80;;;32.90;95.70;;;;;;4196498;28;20128;-64
2022/07/07 04:04:42;;;;;;;15.40;5.28;;;32.90;95.50;;;;;;4196227;28;20310;-64
2022/07/07 04:06:50;;;;;;;8.63;4.45;;;32.80;95.60;;;;;;4156341;28;20095;-64
2022/07/07 04:08:58;;;;;;;10.40;4.55;;;32.80;95.30;;;;;;4185440;28;20535;-64
2022/07/07 04:11:03;;;;;;;12.25;4.70;;;32.80;95.30;;;;;;4181382;28;20054;-64
2022/07/07 04:13:11;;;;;;;9.25;4.72;;;32.80;95.40;;;;;;4160471;28;20042;-64
2022/07/07 04:15:16;;;;;;;8.80;4.65;;;32.80;95.50;;;;;;4195680;28;20155;-64
2022/07/07 04:17:20;;;;;;;9.77;5.40;;;32.80;95.30;;;;;;4180707;28;20127;-64
2022/07/07 04:19:28;;;;;;;9.65;4.50;;;32.90;95.40;;;;;;4190633;28;20510;-64
2022/07/07 04:21:44;;;;;;;7.68;4.07;;;32.90;95.50;;;;;;4191554;28;20052;-64
2022/07/07 04:23:49;;;;;;;11.32;5.20;;;33.00;95.60;;;;;;4196068;28;20439;-65
2022/07/07 04:25:55;;;;;;;5.88;4.28;;;33.10;95.50;;;;;;4195692;28;20041;-64
2022/07/07 04:28:00;;;;;;;5.55;4.15;;;33.30;95.30;;;;;;4185622;28;20044;-64
2022/07/07 04:30:06;;;;;;;7.28;4.05;;;33.50;94.40;;;;;;4176259;28;20254;-65
2022/07/07 04:32:15;;;;;;;7.50;4.07;;;33.50;94.30;;;;;;4179383;28;20529;-65
2022/07/07 04:34:22;;;;;;;8.75;4.13;;;33.60;94.30;;;;;;4176702;28;20515;-64
2022/07/07 04:36:27;;;;;;;6.75;4.15;;;33.70;94.30;;;;;;4171162;28;21033;-64
2022/07/07 04:38:31;;;;;;;10.70;4.65;;;33.60;94.60;;;;;;4170800;28;20041;-64
2022/07/07 04:40:36;;;;;;;9.88;4.03;;;33.60;94.80;;;;;;4179010;28;20044;-64
2022/07/07 04:42:41;;;;;;;7.22;4.20;;;33.60;94.90;;;;;;4178725;28;20040;-64
2022/07/07 04:44:49;;;;;;;12.75;4.10;;;33.60;94.90;;;;;;4178492;28;20041;-64
2022/07/07 04:46:54;;;;;;;7.30;4.03;;;33.70;94.70;;;;;;4178474;28;20080;-64
2022/07/07 04:48:58;;;;;;;7.95;3.67;;;33.70;94.10;;;;;;4179106;28;20060;-65
2022/07/07 04:51:05;;;;;;;8.77;3.60;;;33.60;94.20;;;;;;4178051;28;20782;-64
2022/07/07 04:53:10;;;;;;;12.07;3.88;;;33.50;94.30;;;;;;4177874;28;20044;-64
2022/07/07 04:55:14;;;;;;;7.03;4.32;;;33.50;94.70;;;;;;4177315;28;20400;-65
2022/07/07 04:57:26;;;;;;;7.68;4.65;;;33.50;94.60;;;;;;4184121;28;20052;-65
2022/07/07 04:59:31;;;;;;;9.20;4.10;;;33.50;95.10;;;;;;4194696;28;20090;-65
2022/07/07 05:01:36;;;;;;;10.18;4.65;;;33.50;94.90;;;;;;4195150;28;20052;-64
2022/07/07 05:03:44;;;;;;;10.65;4.00;;;33.50;94.60;;;;;;4194134;28;20063;-64
2022/07/07 05:05:49;;;;;;;8.02;3.67;;;33.60;94.50;;;;;;4188323;28;20586;-63
2022/07/07 05:07:53;;;;;;;8.43;3.70;;;33.60;94.30;;;;;;4177283;28;20559;-61
2022/07/07 05:10:03;;;;;;;9.23;4.10;;;33.70;94.30;;;;;;4178274;28;20053;-61
2022/07/07 05:12:08;;;;;;;7.53;3.28;;;33.90;94.50;;;;;;4177071;28;20550;-62
2022/07/07 05:14:15;;;;;;;7.95;3.85;;;33.90;93.80;;;;;;4161634;28;20479;-62
2022/07/07 05:16:21;;;;;;;9.27;3.10;;;33.80;94.30;;;;;;4178243;28;20045;-61
2022/07/07 05:18:26;;;;;;;6.13;3.65;;;33.70;94.30;;;;;;4178597;28;20136;-62
2022/07/07 05:20:30;;;;;;;9.90;3.92;;;33.90;94.20;;;;;;4178375;28;20037;-61
2022/07/07 05:22:45;;;;;;;7.93;3.38;;;33.90;94.10;;;;;;4177868;28;20523;-62
2022/07/07 05:24:49;;;;;;;5.50;3.40;;;34.00;94.00;;;;;;4178311;28;20036;-63
2022/07/07 05:26:54;;;;;;;6.70;3.65;;;34.00;94.30;;;;;;4161090;28;20046;-62
2022/07/07 05:29:03;;;;;;;6.75;3.45;;;34.00;93.70;;;;;;4159563;28;20132;-62
2022/07/07 05:31:10;;;;;;;7.93;3.50;;;34.00;93.50;;;;;;4192546;28;20457;-62
2022/07/07 05:33:15;;;;;;;7.88;3.35;;;34.10;93.40;;;;;;4177207;28;20060;-62
2022/07/07 05:35:19;;;;;;;5.80;3.17;;;34.10;93.20;;;;;;4177969;28;20049;-62
2022/07/07 05:37:24;;;;;;;7.05;3.03;;;34.10;93.20;;;;;;4178473;28;20306;-62
2022/07/07 05:39:30;;;;;;;5.50;2.88;;;34.10;93.00;;;;;;4178091;28;20049;-62
2022/07/07 05:41:36;;;;;;;5.60;2.97;;;34.10;92.80;;;;;;4177593;28;20041;-62
2022/07/07 05:43:40;;;;;;;5.30;3.53;;;34.10;92.80;;;;;;4177496;28;20045;-62
2022/07/07 05:45:45;;;;;;;5.30;3.30;;;34.20;92.70;;;;;;4177519;28;20099;-62
2022/07/07 05:47:50;;;;;;;7.00;3.10;;;34.30;92.80;;;;;;4177615;28;20053;-62
2022/07/07 05:49:55;;;;;;;9.30;3.20;;;34.40;92.90;;;;;;4177975;28;20122;-62
2022/07/07 05:51:59;;;;;;;7.68;3.35;;;34.50;93.00;;;;;;4177846;28;20103;-62
2022/07/07 05:54:03;;;;;;;5.35;2.88;;;34.60;92.60;;;;;;4178122;28;20510;-62
2022/07/07 05:56:16;;;;;;;7.93;3.13;;;34.80;92.40;;;;;;4177442;28;20045;-63
2022/07/07 05:58:20;;;;;;;4.85;2.78;;;35.10;92.20;;;;;;4177920;28;20041;-62
2022/07/07 06:00:26;;;;;;;5.43;2.70;;;35.00;92.50;;;;;;4177565;28;20068;-63
2022/07/07 06:02:31;;;;;;;4.80;2.97;;;35.10;91.90;;;;;;4178095;28;20049;-63
2022/07/07 06:04:36;;;;;;;6.35;2.50;;;35.30;91.90;;;;;;4177929;28;20041;-62
2022/07/07 06:06:44;;;;;;;5.07;2.53;;;35.10;91.70;;;;;;4178071;28;20127;-62
2022/07/07 06:08:49;;;;;;;5.97;2.50;;;34.90;91.60;;;;;;4192905;28;20047;-61
2022/07/07 06:10:53;;;;;;;5.75;2.50;;;34.90;91.60;;;;;;4177353;28;20124;-62
2022/07/07 06:13:00;;;;;;;5.22;2.25;;;34.80;91.60;;;;;;4177630;28;20526;-62
2022/07/07 06:15:05;;;;;;;6.32;2.83;;;34.70;91.70;;;;;;4176845;28;20049;-62
2022/07/07 06:17:10;;;;;;;7.40;3.15;;;34.70;92.00;;;;;;4177569;28;20071;-64
2022/07/07 06:19:20;;;;;;;8.82;2.65;;;34.80;92.20;;;;;;4177866;28;20124;-63
2022/07/07 06:21:25;;;;;;;6.93;2.50;;;35.00;92.10;;;;;;4177220;28;20407;-64
2022/07/07 06:23:30;;;;;;;5.55;2.65;;;35.10;91.90;;;;;;4158497;28;20092;-64
2022/07/07 06:25:43;;;;;;;6.13;2.60;;;35.00;91.40;;;;;;4142774;28;20050;-63
2022/07/07 06:28:07;;;;;;;5.82;2.65;;;34.80;91.10;;;;;;4171556;28;20452;-64
2022/07/07 06:30:29;;;;;;;5.75;2.63;;;34.80;91.50;;;;;;4177818;28;20047;-63
2022/07/07 06:32:36;;;;;;;5.90;2.67;;;34.60;91.40;;;;;;4161672;28;20046;-61
2022/07/07 06:34:42;;;;;;;9.48;2.78;;;34.40;91.70;;;;;;4175149;28;20041;-62
2022/07/07 06:36:47;;;;;;;8.90;3.00;;;34.20;92.10;;;;;;4158721;28;20049;-62
2022/07/07 06:38:55;;;;;;;6.97;2.67;;;34.10;92.30;;;;;;4174790;28;20069;-63
2022/07/07 06:41:01;;;;;;;7.43;3.00;;;34.00;92.40;;;;;;4174639;28;20041;-61
2022/07/07 06:43:05;;;;;;;6.65;2.90;;;33.80;92.40;;;;;;4158386;28;20055;-62
2022/07/07 06:45:14;;;;;;;4.68;2.40;;;33.80;92.30;;;;;;4159418;28;20047;-62
2022/07/07 06:47:19;;;;;;;4.95;2.83;;;33.60;92.40;;;;;;4174899;28;20094;-63
2022/07/07 06:49:24;;;;;;;6.55;2.70;;;33.60;92.50;;;;;;4172017;28;20051;-62
2022/07/07 06:51:31;;;;;;;6.22;2.85;;;33.60;92.30;;;;;;4174433;28;20072;-61
2022/07/07 06:53:35;;;;;;;5.53;2.80;;;33.60;92.30;;;;;;4174729;28;20515;-62
2022/07/07 06:55:40;;;;;;;13.05;8.13;;;33.60;92.30;;;;;;4176799;28;20048;-62
2022/07/07 06:57:45;;;;;;;13.02;6.40;;;33.50;92.50;;;;;;4177278;28;20044;-62
2022/07/07 06:59:50;;;;;;;12.95;8.32;;;33.40;92.50;;;;;;4176025;28;20045;-63
2022/07/07 07:01:54;;;;;;;16.23;10.15;;;33.40;92.50;;;;;;4176953;28;20077;-62
2022/07/07 07:04:01;;;;;;;11.32;5.97;;;33.40;92.50;;;;;;4177511;28;20045;-62
2022/07/07 07:06:06;;;;;;;11.32;4.22;;;33.30;92.40;;;;;;4176947;28;20049;-62
2022/07/07 07:08:11;;;;;;;12.32;3.72;;;32.40;93.30;;;;;;4192042;28;20052;-63
2022/07/07 07:10:17;;;;;;;7.35;4.80;;;32.20;94.20;;;;;;4158344;28;20041;-63
2022/07/07 07:12:21;;;;;;;7.25;2.72;;;31.80;95.10;;;;;;4177045;28;20079;-62
2022/07/07 07:14:26;;;;;;;5.75;2.15;;;31.60;96.30;;;;;;4176753;28;20419;-62
2022/07/07 07:16:35;;;;;;;6.43;1.73;;;30.90;96.80;;;;;;4177034;28;20148;-61
2022/07/07 07:18:40;;;;;;;5.70;1.20;;;30.40;96.30;;;;;;4176830;28;20182;-61
2022/07/07 07:20:44;;;;;;;5.47;1.25;;;30.00;96.20;;;;;;4175211;28;20073;-62
2022/07/07 07:22:52;;;;;;;5.03;1.63;;;29.90;96.40;;;;;;4157974;28;20060;-62
2022/07/07 07:24:57;;;;;;;5.82;1.63;;;30.30;96.20;;;;;;4177238;28;20499;-63
2022/07/07 07:27:04;;;;;;;4.70;1.38;;;30.20;96.10;;;;;;4181057;28;20044;-60
2022/07/07 07:29:13;;;;;;;5.18;1.30;;;30.50;96.00;;;;;;4184042;28;20083;-61
2022/07/07 07:31:17;;;;;;;4.03;1.50;;;30.50;96.00;;;;;;4179584;28;20076;-63
2022/07/07 07:33:23;;;;;;;3.90;1.75;;;30.60;96.00;;;;;;4180651;28;20041;-63
2022/07/07 07:35:29;;;;;;;3.45;1.17;;;30.70;95.40;;;;;;4180316;28;20430;-62
2022/07/07 07:37:35;;;;;;;3.50;1.20;;;30.70;95.30;;;;;;4180507;28;20491;-62
2022/07/07 07:39:40;;;;;;;4.38;1.00;;;30.70;94.90;;;;;;4179239;28;20165;-64
2022/07/07 07:41:49;;;;;;;4.20;1.13;;;30.70;95.10;;;;;;4180157;28;20484;-60
2022/07/07 07:43:54;;;;;;;5.65;1.40;;;30.80;94.70;;;;;;4162730;28;20095;-61
2022/07/07 07:46:00;;;;;;;4.88;1.30;;;30.90;94.90;;;;;;4179595;28;20048;-62
2022/07/07 07:48:10;;;;;;;5.57;1.20;;;30.80;94.90;;;;;;4179748;28;20081;-62
2022/07/07 07:50:16;;;;;;;3.58;1.27;;;31.00;95.10;;;;;;4180091;28;20500;-62
2022/07/07 07:52:21;;;;;;;3.55;1.30;;;31.30;95.00;;;;;;4180047;28;20059;-63
2022/07/07 07:54:29;;;;;;;2.88;1.00;;;31.30;94.80;;;;;;4180265;28;20059;-64
2022/07/07 07:56:34;;;;;;;3.03;1.15;;;31.10;95.20;;;;;;4162530;28;20120;-64
2022/07/07 07:58:39;;;;;;;2.13;1.00;;;30.70;95.80;;;;;;4179800;28;20049;-61
2022/07/07 08:00:47;;;;;;;2.70;1.25;;;30.60;96.30;;;;;;4179348;28;20442;-61
2022/07/07 08:02:52;;;;;;;3.25;1.38;;;30.60;96.50;;;;;;4180038;28;20425;-63
2022/07/07 08:04:56;;;;;;;3.03;1.45;;;30.50;97.00;;;;;;4179692;28;20076;-63
2022/07/07 08:07:05;;;;;;;4.65;1.55;;;30.50;97.30;;;;;;4163436;28;20091;-63
2022/07/07 08:09:10;;;;;;;3.17;1.52;;;30.70;97.40;;;;;;4163239;28;20076;-63
2022/07/07 08:11:14;;;;;;;4.40;1.77;;;30.60;97.70;;;;;;4161460;28;20079;-62
2022/07/07 08:13:22;;;;;;;4.30;1.52;;;30.60;97.10;;;;;;4177139;28;20056;-63
2022/07/07 08:15:28;;;;;;;5.18;1.60;;;30.70;96.90;;;;;;4176633;28;20048;-63
2022/07/07 08:17:32;;;;;;;2.60;1.55;;;30.30;96.90;;;;;;4162153;28;20164;-63
2022/07/07 08:19:41;;;;;;;5.38;1.90;;;29.90;97.60;;;;;;4163994;28;20041;-62
2022/07/07 08:21:46;;;;;;;5.88;2.20;;;29.80;98.10;;;;;;4179322;28;20375;-62
2022/07/07 08:23:51;;;;;;;3.08;1.60;;;29.70;98.60;;;;;;4162651;28;20103;-61
2022/07/07 08:26:01;;;;;;;4.95;1.50;;;29.30;98.80;;;;;;4161881;28;20038;-63
2022/07/07 08:28:07;;;;;;;4.88;1.25;;;29.20;99.30;;;;;;4163725;28;20150;-60
2022/07/07 08:30:17;;;;;;;3.10;0.93;;;29.20;98.80;;;;;;4179166;28;20049;-62
2022/07/07 08:32:26;;;;;;;4.00;0.82;;;29.10;98.00;;;;;;4178286;28;20146;-63
2022/07/07 08:34:31;;;;;;;2.38;1.30;;;29.10;98.10;;;;;;4179342;28;20098;-62
2022/07/07 08:36:43;;;;;;;4.38;0.77;;;28.90;98.80;;;;;;4178994;28;20045;-63
2022/07/07 08:38:48;;;;;;;2.40;0.60;;;28.90;99.10;;;;;;4178828;28;20080;-62
2022/07/07 08:40:52;;;;;;;2.97;0.68;;;28.70;99.10;;;;;;4179439;28;20095;-62
2022/07/07 08:42:57;;;;;;;2.85;0.93;;;28.60;99.50;;;;;;4143728;28;20511;-62
2022/07/07 08:45:03;;;;;;;2.08;0.85;;;28.90;99.20;;;;;;4128195;28;20089;-61
2022/07/07 08:47:10;;;;;;;2.22;0.85;;;28.50;99.90;;;;;;4127814;28;20057;-62
2022/07/07 08:49:21;;;;;;;1.48;0.80;;;28.90;99.60;;;;;;4143807;28;20463;-62
2022/07/07 08:51:26;;;;;;;4.78;3.00;;;28.70;99.10;;;;;;4144084;28;20053;-61
2022/07/07 08:53:35;;;;;;;19.77;11.93;;;28.70;99.20;;;;;;4143586;28;20475;-61
2022/07/07 08:55:45;;;;;;;10.70;5.13;;;28.60;99.60;;;;;;4143686;28;20050;-61
2022/07/07 08:57:55;;;;;;;11.95;5.25;;;28.60;99.90;;;;;;4111117;28;20332;-62
2022/07/07 09:00:00;;;;;;;5.70;3.58;;;28.50;99.90;;;;;;4111700;28;20138;-62
2022/07/07 09:02:05;;;;;;;4.78;2.42;;;28.50;99.90;;;;;;4094865;28;20098;-62
2022/07/07 09:04:12;;;;;;;5.90;2.20;;;28.30;99.90;;;;;;4111012;28;20051;-62
2022/07/07 09:06:17;;;;;;;3.75;1.55;;;28.10;99.90;;;;;;4110785;28;20046;-61
2022/07/07 09:08:28;;;;;;;5.35;2.10;;;28.20;99.90;;;;;;4110982;28;20110;-61
2022/07/07 09:10:42;;;;;;;5.47;1.75;;;28.20;99.90;;;;;;4111243;28;20058;-62
2022/07/07 09:12:46;;;;;;;4.10;1.75;;;28.10;99.90;;;;;;4111293;28;20407;-61
2022/07/07 09:14:55;;;;;;;4.47;1.30;;;27.90;99.90;;;;;;4137697;28;20097;-61
2022/07/07 09:17:19;;;;;;;2.42;1.00;;;27.90;99.90;;;;;;4143457;28;20069;-62
2022/07/07 09:19:35;;;;;;;4.93;1.10;;;27.90;99.90;;;;;;4142910;28;20516;-62
2022/07/07 09:22:01;;;;;;;3.33;1.25;;;28.00;99.90;;;;;;4094718;29;20055;-62
2022/07/07 09:24:11;;;;;;;2.90;0.85;;;28.00;99.90;;;;;;4095363;29;20051;-62
2022/07/07 09:26:40;;;;;;;3.38;1.42;;;28.00;99.90;;;;;;4095136;28;20550;-61
2022/07/07 09:28:44;;;;;;;3.17;1.50;;;28.20;99.90;;;;;;4109732;28;20046;-62
2022/07/07 09:31:17;;;;;;;3.25;1.40;;;28.40;99.90;;;;;;4129276;28;20081;-61
2022/07/07 09:33:25;;;;;;;3.00;1.38;;;28.30;99.90;;;;;;4142961;28;20104;-62
2022/07/07 09:40:19;;;;;;;11.65;9.20;;;28.30;99.90;;;;;;4138413;28;20145;-63
2022/07/07 09:42:32;;;;;;;9.48;6.65;;;28.40;99.90;;;;;;4135321;28;20042;-63
2022/07/07 09:44:43;;;;;;;6.65;3.85;;;28.40;99.90;;;;;;4134408;28;20042;-62
2022/07/07 09:46:47;;;;;;;6.80;4.78;;;28.60;99.90;;;;;;4149785;28;20049;-62
2022/07/07 09:49:02;;;;;;;4.68;4.22;;;28.70;99.90;;;;;;4169638;28;20460;-61
2022/07/07 09:51:26;;;;;;;4.70;2.88;;;28.70;99.90;;;;;;4169058;28;20049;-60
2022/07/07 09:53:57;;;;;;;8.52;5.68;;;28.50;99.90;;;;;;4172511;28;20057;-63
2022/07/07 09:56:03;;;;;;;6.72;5.30;;;28.70;99.90;;;;;;4192601;28;20091;-62
2022/07/07 09:58:10;;;;;;;8.23;6.32;;;28.90;99.90;;;;;;4178032;28;20083;-63
2022/07/07 10:00:16;;;;;;;11.95;8.88;;;28.90;99.90;;;;;;4192247;28;20228;-62
2022/07/07 10:02:25;;;;;;;14.20;9.52;;;29.00;99.90;;;;;;4177400;28;20045;-62
2022/07/07 10:04:35;;;;;;;11.15;7.95;;;29.10;99.90;;;;;;4177836;28;20045;-62
2022/07/07 10:06:43;;;;;;;15.10;7.10;;;29.10;99.90;;;;;;4177449;28;20045;-62
2022/07/07 10:08:47;;;;;;;7.57;4.45;;;29.10;99.90;;;;;;4161315;28;20457;-64
2022/07/07 10:10:56;;;;;;;4.85;3.08;;;29.00;99.90;;;;;;4161600;28;20037;-61
2022/07/07 10:13:07;;;;;;;5.18;2.75;;;29.10;99.90;;;;;;4177699;28;20048;-64
2022/07/07 10:15:12;;;;;;;4.40;2.20;;;29.10;99.90;;;;;;4174952;28;20155;-62
2022/07/07 10:17:17;;;;;;;4.22;2.03;;;29.20;99.90;;;;;;4191986;28;20530;-64
2022/07/07 10:19:23;;;;;;;6.13;2.20;;;29.20;99.90;;;;;;4175794;28;20435;-63
2022/07/07 10:21:28;;;;;;;5.18;1.80;;;29.10;99.90;;;;;;4177547;28;20037;-63
2022/07/07 10:23:42;;;;;;;3.17;1.48;;;29.10;99.90;;;;;;4164036;28;20037;-63
2022/07/07 10:26:03;;;;;;;5.88;2.85;;;29.20;99.90;;;;;;4172064;28;20041;-65
2022/07/07 10:28:08;;;;;;;4.28;1.63;;;29.10;99.90;;;;;;4172014;28;20049;-63
2022/07/07 10:30:28;;;;;;;5.45;1.70;;;29.10;99.90;;;;;;4174377;28;20041;-62
2022/07/07 10:32:51;;;;;;;3.60;1.70;;;29.20;99.90;;;;;;4183402;28;20044;-63
2022/07/07 10:35:09;;;;;;;3.13;1.30;;;29.20;99.90;;;;;;4171056;28;20400;-63
2022/07/07 10:37:15;;;;;;;3.97;1.52;;;29.20;99.90;;;;;;4164003;28;20064;-63
2022/07/07 10:39:23;;;;;;;3.08;1.45;;;29.20;99.90;;;;;;4168899;28;20558;-62
2022/07/07 10:41:27;;;;;;;4.82;1.45;;;29.30;99.90;;;;;;4173276;28;20071;-62
2022/07/07 10:43:37;;;;;;;2.42;1.40;;;29.30;99.90;;;;;;4172430;28;20304;-63
2022/07/07 10:45:49;;;;;;;3.80;2.50;;;29.20;99.90;;;;;;4169190;28;20495;-63
2022/07/07 10:47:54;;;;;;;6.10;2.30;;;29.20;99.90;;;;;;4171607;28;20037;-63
2022/07/07 10:49:59;;;;;;;3.65;2.17;;;29.10;99.90;;;;;;4175011;28;20033;-64
2022/07/07 10:52:13;;;;;;;4.40;1.77;;;29.10;99.90;;;;;;4176006;28;20049;-61
2022/07/07 10:54:20;;;;;;;4.17;1.87;;;29.10;99.90;;;;;;4166322;28;20480;-63
2022/07/07 10:56:26;;;;;;;4.47;2.47;;;29.10;99.90;;;;;;4182507;28;20291;-63
2022/07/07 10:58:43;;;;;;;7.45;2.63;;;29.10;99.90;;;;;;4168219;28;20056;-62
2022/07/07 11:01:00;;;;;;;4.75;2.30;;;29.10;99.90;;;;;;4168420;28;20408;-63
2022/07/07 11:03:10;;;;;;;7.38;2.92;;;29.00;99.90;;;;;;4148728;28;20046;-63
2022/07/07 11:05:15;;;;;;;12.85;5.45;;;29.00;99.90;;;;;;4168711;28;20137;-63